createdAt,value
2023-01-23T00:01:27.687Z,-28.5
2023-01-23T00:03:29.399Z,-28.2
2023-01-23T00:05:30.861Z,-28.6
2023-01-23T00:07:32.738Z,-28.2
2023-01-23T00:11:35.920Z,-28.4
2023-01-23T00:13:37.880Z,-28.5
2023-01-23T00:15:39.742Z,-28.4
2023-01-23T00:17:41.450Z,-28.2
2023-01-23T00:21:44.835Z,-28.4
2023-01-23T00:23:46.769Z,-28
2023-01-23T00:25:48.604Z,-28.3
2023-01-23T00:27:50.141Z,-28.2
2023-01-23T00:29:51.931Z,-28.6
2023-01-23T00:31:53.662Z,-28.3
2023-01-23T00:33:55.510Z,-28.3
2023-01-23T00:35:57.119Z,-28
2023-01-23T00:37:58.744Z,-28.5
2023-01-23T00:40:00.341Z,-28.5
2023-01-23T00:42:01.445Z,-28.2
2023-01-23T00:44:03.195Z,-28.4
2023-01-23T00:46:05.179Z,-28.4
2023-01-23T00:50:08.686Z,-28.2
2023-01-23T00:54:11.862Z,-28.4
2023-01-23T00:56:13.603Z,-28.4
2023-01-23T00:58:15.300Z,-28.3
2023-01-23T01:00:16.523Z,-28.2
2023-01-23T01:04:19.799Z,-28.2
2023-01-23T01:06:21.573Z,-28.4
2023-01-23T01:08:22.793Z,-28.5
2023-01-23T01:10:23.891Z,-28.3
2023-01-23T01:12:25.033Z,-28.4
2023-01-23T01:14:27.067Z,-28.4
2023-01-23T01:16:28.823Z,-28.3
2023-01-23T01:18:29.953Z,-28.2
2023-01-23T01:20:31.781Z,-28.5
2023-01-23T01:22:33.264Z,-28.4
2023-01-23T01:24:34.419Z,-28.2
2023-01-23T01:26:36.798Z,-28.4
2023-01-23T01:28:38.060Z,-28.4
2023-01-23T01:30:39.222Z,-28.1
2023-01-23T01:32:40.716Z,-28
2023-01-23T01:36:43.932Z,-28.2
2023-01-23T01:38:45.654Z,-28.1
2023-01-23T01:40:46.724Z,-28.4
2023-01-23T01:42:48.402Z,-28.5
2023-01-23T01:44:49.443Z,-28.5
2023-01-23T01:46:50.883Z,-28.1
2023-01-23T01:48:52.076Z,-28.6
2023-01-23T01:50:53.286Z,-28.6
2023-01-23T01:52:54.866Z,-28.4
2023-01-23T01:54:56.325Z,-28.5
2023-01-23T01:56:57.916Z,-28.3
2023-01-23T01:58:59.587Z,-28.3
2023-01-23T02:03:02.790Z,-28.5
2023-01-23T02:05:04.092Z,-28.4
2023-01-23T02:07:05.922Z,-28.3
2023-01-23T02:09:07.367Z,-28.4
2023-01-23T02:11:09.390Z,-28.2
2023-01-23T02:13:10.473Z,-28
2023-01-23T02:15:12.081Z,-28.3
2023-01-23T02:17:13.342Z,-28.3
2023-01-23T02:19:14.913Z,-28.3
2023-01-23T02:21:16.327Z,-28.3
2023-01-23T02:23:18.279Z,-28.4
2023-01-23T02:25:19.605Z,-28.3
2023-01-23T02:27:21.491Z,-28.3
2023-01-23T02:29:22.850Z,-28.5
2023-01-23T02:31:24.087Z,-28.4
2023-01-23T02:33:25.592Z,-28.3
2023-01-23T02:35:27.523Z,-28.3
2023-01-23T02:37:29.063Z,-28.3
2023-01-23T02:39:30.375Z,-28.4
2023-01-23T02:41:32.007Z,-28.5
2023-01-23T02:45:35.639Z,-28.3
2023-01-23T02:47:37.646Z,-28.5
2023-01-23T02:49:39.692Z,-28
2023-01-23T02:51:41.505Z,-28.4
2023-01-23T02:53:43.122Z,-28.3
2023-01-23T02:55:44.451Z,-28.6
2023-01-23T02:57:46.171Z,-28.5
2023-01-23T02:59:47.343Z,-28.2
2023-01-23T03:01:49.175Z,-28.4
2023-01-23T03:03:50.996Z,-28.4
2023-01-23T03:05:52.520Z,-28.6
2023-01-23T03:07:54.023Z,-28.3
2023-01-23T03:09:55.614Z,-28.3
2023-01-23T03:13:59.307Z,-28.3
2023-01-23T03:16:01.352Z,-28.5
2023-01-23T03:18:02.766Z,-28.4
2023-01-23T03:20:04.688Z,-28.3
2023-01-23T03:22:05.881Z,-28.4
2023-01-23T03:24:07.084Z,-28.4
2023-01-23T03:28:09.987Z,-28.4
2023-01-23T03:30:11.504Z,-28.3
2023-01-23T03:32:13.256Z,-28.3
2023-01-23T03:34:14.989Z,-28.2
2023-01-23T03:36:16.908Z,-28.4
2023-01-23T03:38:18.637Z,-28
2023-01-23T03:40:20.827Z,-28.5
2023-01-23T03:42:22.119Z,-28.5
2023-01-23T03:44:23.914Z,-28.1
2023-01-23T03:46:25.453Z,-28.4
2023-01-23T03:48:26.922Z,-28.2
2023-01-23T03:50:28.270Z,-28.5
2023-01-23T03:52:29.839Z,-28.3
2023-01-23T03:54:31.507Z,-28.2
2023-01-23T03:56:33.537Z,-28.4
2023-01-23T03:58:35.410Z,-28.3
2023-01-23T04:00:37.199Z,-28.5
2023-01-23T04:02:39.031Z,-28.4
2023-01-23T04:04:40.122Z,-28.5
2023-01-23T04:06:41.541Z,-28.3
2023-01-23T04:08:43.470Z,-28.3
2023-01-23T04:10:44.765Z,-28.5
2023-01-23T04:12:46.800Z,-28.4
2023-01-23T04:14:48.667Z,-28.5
2023-01-23T04:16:50.103Z,-28.3
2023-01-23T04:18:51.329Z,-28.4
2023-01-23T04:20:52.785Z,-28.5
2023-01-23T04:22:54.212Z,-28.5
2023-01-23T04:24:55.998Z,-28.2
2023-01-23T04:26:57.877Z,-28.4
2023-01-23T04:28:59.476Z,-28.2
2023-01-23T04:31:01.605Z,-28.2
2023-01-23T04:33:02.477Z,-28.3
2023-01-23T04:35:04.308Z,-28.3
2023-01-23T04:39:07.786Z,-28.2
2023-01-23T04:41:09.596Z,-28.4
2023-01-23T04:43:11.288Z,-28.4
2023-01-23T04:45:12.393Z,-28.1
2023-01-23T04:47:13.846Z,-28.4
2023-01-23T04:49:15.307Z,-28.4
2023-01-23T04:51:16.794Z,-28.4
2023-01-23T04:53:18.459Z,-28.2
2023-01-23T04:55:20.067Z,-28.6
2023-01-23T04:57:21.210Z,-28.4
2023-01-23T04:59:23.180Z,-28.3
2023-01-23T05:01:25.247Z,-28.4
2023-01-23T05:03:26.956Z,-28.2
2023-01-23T05:05:28.467Z,-28.3
2023-01-23T05:07:30.017Z,-28.3
2023-01-23T05:09:32.054Z,-28.4
2023-01-23T05:11:33.453Z,-28.4
2023-01-23T05:13:35.123Z,-28.3
2023-01-23T05:15:36.294Z,-28.2
2023-01-23T05:17:37.358Z,-28.5
2023-01-23T05:19:38.798Z,-28.2
2023-01-23T05:21:40.826Z,-28.3
2023-01-23T05:23:42.390Z,-28.3
2023-01-23T05:25:43.889Z,-28.5
2023-01-23T05:27:45.559Z,-28.5
2023-01-23T05:29:47.300Z,-28.4
2023-01-23T05:31:48.915Z,-28.3
2023-01-23T05:35:51.732Z,-28.3
2023-01-23T05:37:53.035Z,-28.4
2023-01-23T05:39:54.697Z,-28.4
2023-01-23T05:41:56.315Z,-28.2
2023-01-23T05:43:57.432Z,-28.4
2023-01-23T05:45:58.704Z,-28.3
2023-01-23T05:48:00.381Z,-28.4
2023-01-23T05:50:02.423Z,-28.3
2023-01-23T05:52:03.678Z,-28.3
2023-01-23T05:54:05.337Z,-28.4
2023-01-23T05:58:08.438Z,-28.4
2023-01-23T06:00:09.656Z,-28.2
2023-01-23T06:02:10.885Z,-28.3
2023-01-23T06:04:12.263Z,-28.5
2023-01-23T06:06:14.342Z,-28.3
2023-01-23T06:08:15.641Z,-28.3
2023-01-23T06:10:17.286Z,-28.2
2023-01-23T06:12:18.259Z,-28.4
2023-01-23T06:14:20.186Z,-28.6
2023-01-23T06:17:07.045Z,-28.3
2023-01-23T06:19:08.968Z,-28.4
2023-01-23T06:21:10.363Z,-28.2
2023-01-23T06:23:11.611Z,-28.6
2023-01-23T06:25:13.605Z,-28.3
2023-01-23T06:29:16.253Z,-28.4
2023-01-23T06:31:17.790Z,-28.3
2023-01-23T06:33:18.837Z,-28.2
2023-01-23T06:35:20.565Z,-28.4
2023-01-23T06:39:23.624Z,-28.4
2023-01-23T06:41:25.562Z,-28.2
2023-01-23T06:45:28.099Z,-28.5
2023-01-23T06:47:30.111Z,-28.3
2023-01-23T06:49:31.181Z,-28.5
2023-01-23T06:51:32.527Z,-28.2
2023-01-23T06:55:35.292Z,-28.2
2023-01-23T06:57:37.036Z,-28.1
2023-01-23T06:59:38.778Z,-28.2
2023-01-23T07:01:40.620Z,-28.4
2023-01-23T07:05:42.716Z,-28.2
2023-01-23T07:07:43.794Z,-28.4
2023-01-23T07:11:47.383Z,-28.3
2023-01-23T07:13:48.524Z,-28.5
2023-01-23T07:15:49.863Z,-28.5
2023-01-23T07:17:51.611Z,-28.4
2023-01-23T07:23:56.286Z,-28.4
2023-01-23T07:27:59.124Z,-28.3
2023-01-23T07:30:01.114Z,-28.1
2023-01-23T07:32:02.225Z,-28.5
2023-01-23T07:34:04.046Z,-28.3
2023-01-23T07:38:07.521Z,-28.2
2023-01-23T07:40:08.909Z,-28.2
2023-01-23T07:42:10.221Z,-28.3
2023-01-23T07:44:11.800Z,-28.4
2023-01-23T07:46:13.753Z,-28.5
2023-01-23T07:48:15.041Z,-28.2
2023-01-23T07:50:16.961Z,-28.2
2023-01-23T07:52:17.985Z,-28.1
2023-01-23T07:54:19.801Z,-28.3
2023-01-23T07:56:21.497Z,-28.5
2023-01-23T07:58:23.233Z,-28.6
2023-01-23T08:00:25.269Z,-28.4
2023-01-23T08:02:25.646Z,-28.2
2023-01-23T08:04:26.886Z,-28.3
2023-01-23T08:06:28.087Z,-28.4
2023-01-23T08:10:30.479Z,-28.4
2023-01-23T08:12:31.914Z,-28.2
2023-01-23T08:14:33.247Z,-28.3
2023-01-23T08:16:34.805Z,-28.2
2023-01-23T08:18:36.638Z,-28.5
2023-01-23T08:22:39.051Z,-28.4
2023-01-23T08:24:40.399Z,-27.9
2023-01-23T08:26:41.769Z,-28.4
2023-01-23T08:28:42.822Z,-28.4
2023-01-23T08:30:44.178Z,-28.2
2023-01-23T08:32:45.477Z,-28.3
2023-01-23T08:36:49.166Z,-28.4
2023-01-23T08:38:51.085Z,-28.3
2023-01-23T08:40:52.204Z,-26.8
2023-01-23T08:42:54.276Z,-26.6
2023-01-23T08:44:54.951Z,-26.7
2023-01-23T08:46:56.563Z,-26.4
2023-01-23T08:48:58.235Z,-26.4
2023-01-23T08:50:59.846Z,-26.5
2023-01-23T08:53:01.104Z,-26.6
2023-01-23T08:55:02.900Z,-26.6
2023-01-23T08:59:05.180Z,-26.7
2023-01-23T09:01:06.314Z,-26.7
2023-01-23T09:03:09.883Z,-28.8
2023-01-23T09:05:10.077Z,-28.4
2023-01-23T09:07:11.702Z,-28.3
2023-01-23T09:09:13.048Z,-28.1
2023-01-23T09:11:14.332Z,-28.2
2023-01-23T09:13:16.009Z,-28.4
2023-01-23T09:15:17.168Z,-28.4
2023-01-23T09:21:21.720Z,-28.4
2023-01-23T09:23:23.112Z,-27.9
2023-01-23T09:25:24.745Z,-28.3
2023-01-23T09:27:25.759Z,-28.4
2023-01-23T09:29:26.966Z,-28.4
2023-01-23T09:31:28.628Z,-28.2
2023-01-23T09:35:30.702Z,-28
2023-01-23T09:37:31.840Z,-28.3
2023-01-23T09:39:32.923Z,-27.8
2023-01-23T09:41:34.128Z,-27.8
2023-01-23T09:43:35.925Z,-28
2023-01-23T09:47:41.041Z,-28.4
2023-01-23T09:49:42.788Z,-28.6
2023-01-23T09:51:44.665Z,-28.4
2023-01-23T09:53:46.476Z,-28.3
2023-01-23T09:55:47.653Z,-28
2023-01-23T09:57:49.556Z,-28.6
2023-01-23T09:59:59.238Z,-28.4
2023-01-23T10:01:52.426Z,-28.3
2023-01-23T10:03:53.950Z,-28.2
2023-01-23T10:05:55.191Z,-28
2023-01-23T10:07:56.472Z,-28.5
2023-01-23T10:10:00.331Z,-28.4
2023-01-23T10:11:59.903Z,-28.4
2023-01-23T10:14:01.722Z,-28.3
2023-01-23T10:16:03.617Z,-28.2
2023-01-23T10:18:04.791Z,-1
2023-01-23T10:20:06.387Z,10.5
2023-01-23T10:22:08.204Z,11.9
2023-01-23T10:24:09.777Z,14.1
2023-01-23T10:26:11.789Z,11
2023-01-23T10:30:14.324Z,9.5
2023-01-23T10:34:17.333Z,9.89
2023-01-23T10:36:21.645Z,7
2023-01-23T10:38:20.269Z,5.2
2023-01-23T10:40:22.285Z,2.9
2023-01-23T10:44:25.042Z,7.7
2023-01-23T10:46:26.523Z,11.2
2023-01-23T10:48:28.466Z,5.3
2023-01-23T10:50:29.918Z,4.1
2023-01-23T10:52:31.337Z,1.6
2023-01-23T10:54:33.489Z,7.8
2023-01-23T10:56:34.306Z,4.69
2023-01-23T10:58:36.218Z,2.5
2023-01-23T11:00:37.752Z,5.5
2023-01-23T11:02:38.828Z,7
2023-01-23T11:04:40.840Z,11.1
2023-01-23T11:06:41.857Z,12.6
2023-01-23T11:08:43.642Z,11.9
2023-01-23T11:10:45.013Z,13.5
2023-01-23T11:12:46.201Z,13.3
2023-01-23T11:14:47.763Z,9.8
2023-01-23T11:16:48.879Z,18.2
2023-01-23T11:18:50.490Z,14.3
2023-01-23T11:20:52.164Z,13.7
2023-01-23T11:22:53.468Z,12.5
2023-01-23T11:24:55.034Z,16.2
2023-01-23T11:28:58.979Z,7.2
2023-01-23T11:31:11.823Z,5.7
2023-01-23T11:33:01.108Z,3.2
2023-01-23T11:35:02.649Z,10.4
2023-01-23T11:37:04.047Z,7.7
2023-01-23T11:39:05.212Z,5.8
2023-01-23T11:41:07.153Z,2
2023-01-23T11:45:10.120Z,-1.5
2023-01-23T11:49:13.509Z,-5.8
2023-01-23T11:51:14.709Z,2.09
2023-01-23T11:53:16.685Z,-3.9
2023-01-23T11:55:18.841Z,-11.3
2023-01-23T11:59:21.407Z,-11.2
2023-01-23T12:01:23.405Z,-1.1
2023-01-23T12:03:25.018Z,-0.5
2023-01-23T12:05:26.929Z,-4.6
2023-01-23T12:07:28.587Z,-4.3
2023-01-23T12:09:29.784Z,-5.4
2023-01-23T12:11:30.829Z,-2.6
2023-01-23T12:13:32.158Z,0.5
2023-01-23T12:15:33.667Z,0.1
2023-01-23T12:17:35.381Z,-0.9
2023-01-23T12:19:36.793Z,-0.9
2023-01-23T12:21:38.030Z,2.7
2023-01-23T12:23:40.172Z,8
2023-01-23T12:25:41.061Z,7.7
2023-01-23T12:27:42.500Z,9.1
2023-01-23T12:31:46.108Z,13
2023-01-23T12:33:48.006Z,10.9
2023-01-23T12:35:49.031Z,9
2023-01-23T12:37:50.055Z,13
2023-01-23T12:43:55.381Z,17.2
2023-01-23T12:45:57.177Z,16
2023-01-23T12:48:00.191Z,19.29
2023-01-23T12:50:00.281Z,16.9
2023-01-23T12:52:01.776Z,15.7
2023-01-23T12:54:03.718Z,16.7
2023-01-23T12:56:05.188Z,8.1
2023-01-23T12:58:09.232Z,9.1
2023-01-23T13:00:08.131Z,10
2023-01-23T13:02:10.094Z,21
2023-01-23T13:04:54.893Z,18.29
2023-01-23T13:06:56.337Z,27
2023-01-23T13:09:08.833Z,22.5
2023-01-23T13:10:59.565Z,54.5
2023-01-23T13:13:01.206Z,64.69
2023-01-23T13:15:31.009Z,40.3
2023-01-23T13:17:04.408Z,22.7
2023-01-23T13:21:06.993Z,39.59
2023-01-23T13:23:08.828Z,34.4
2023-01-23T13:25:10.552Z,27.4
2023-01-23T13:27:11.676Z,66.19
2023-01-23T13:29:13.119Z,81.69
2023-01-23T13:31:15.123Z,81.6
2023-01-23T13:35:18.529Z,-12.8
2023-01-23T13:37:19.270Z,-19
2023-01-23T13:39:20.478Z,-8.7
2023-01-23T13:41:22.126Z,0.4
2023-01-23T13:43:23.275Z,4.3
2023-01-23T13:45:25.075Z,5
2023-01-23T14:23:54.138Z,81.4
2023-01-23T14:25:55.819Z,81.69
2023-01-23T14:27:57.479Z,81.9
2023-01-23T14:29:59.100Z,81.4
2023-01-23T14:34:09.598Z,81.8
2023-01-23T14:36:03.629Z,81.8
2023-01-23T14:38:05.047Z,81.8
2023-01-23T14:40:11.869Z,81.8
2023-01-23T14:46:10.031Z,-5.7
2023-01-23T14:48:11.802Z,-17.5
2023-01-23T14:50:13.397Z,-24.4
2023-01-23T14:52:15.159Z,-28.2
2023-01-23T14:54:20.310Z,-28.2
2023-01-23T14:56:17.816Z,-28.4
2023-01-23T14:58:19.299Z,-28.3
2023-01-23T15:00:21.231Z,-28.5
2023-01-23T15:02:22.806Z,-28.3
2023-01-23T15:04:24.611Z,-28.2
2023-01-23T15:06:26.400Z,-28.3
2023-01-23T15:10:29.401Z,-28.4
2023-01-23T15:12:30.846Z,-28.4
2023-01-23T15:14:32.781Z,-28.4
2023-01-23T15:16:34.036Z,-28.3
2023-01-23T15:18:35.193Z,-28.4
2023-01-23T15:20:36.221Z,-28.2
2023-01-23T15:22:37.524Z,-28.4
2023-01-23T15:24:39.024Z,-28
2023-01-23T15:28:42.594Z,-28.3
2023-01-23T15:32:45.196Z,-28.4
2023-01-23T15:34:46.658Z,-28
2023-01-23T15:36:48.474Z,-28.2
2023-01-23T15:38:49.667Z,-28.2
2023-01-23T15:42:53.321Z,-28.1
2023-01-23T15:44:54.750Z,-28.4
2023-01-23T15:46:56.599Z,-28.2
2023-01-23T15:48:58.423Z,-28.2
2023-01-23T15:50:59.956Z,-28.2
2023-01-23T15:53:01.983Z,-28.2
2023-01-23T15:55:03.306Z,-28.4
2023-01-23T15:57:08.514Z,-28.4
2023-01-23T15:59:06.411Z,-28.3
2023-01-23T16:01:08.094Z,-28.3
2023-01-23T16:03:09.200Z,-28.2
2023-01-23T16:05:10.698Z,-28
2023-01-23T16:07:12.033Z,-28.3
2023-01-23T16:09:13.080Z,-28.2
2023-01-23T16:11:14.260Z,-28.3
2023-01-23T16:15:16.528Z,-28.2
2023-01-23T16:17:18.011Z,-28
2023-01-23T16:19:19.080Z,-28.5
2023-01-23T16:21:20.158Z,-28.1
2023-01-23T16:23:21.624Z,-26.5
2023-01-23T16:27:24.499Z,-26.5
2023-01-23T16:29:25.622Z,-26.5
2023-01-23T16:31:27.430Z,-26.6
2023-01-23T16:33:28.699Z,-26.7
2023-01-23T16:35:30.224Z,-26.3
2023-01-23T16:37:31.528Z,-26.4
2023-01-23T16:39:33.455Z,-26.6
2023-01-23T16:41:34.600Z,-26.8
2023-01-23T16:43:36.080Z,-26.5
2023-01-23T16:45:38.104Z,-26.3
2023-01-23T16:47:39.770Z,-26.3
2023-01-23T16:49:51.264Z,-26.5
2023-01-23T16:51:43.048Z,-26.5
2023-01-23T16:53:44.456Z,-26.6
2023-01-23T16:55:46.041Z,-26.5
2023-01-23T16:57:47.500Z,-26.5
2023-01-23T16:59:49.034Z,-26.6
2023-01-23T17:01:50.899Z,-26.3
2023-01-23T17:03:52.558Z,-26.6
2023-01-23T17:05:53.611Z,-26.8
2023-01-23T17:07:55.275Z,-26.5
2023-01-23T17:09:56.673Z,-26.5
2023-01-23T17:11:58.029Z,-26.5
2023-01-23T17:13:59.186Z,-26.4
2023-01-23T17:16:00.432Z,-26.5
2023-01-23T17:18:01.478Z,-26.5
2023-01-23T17:20:03.122Z,-26.7
2023-01-23T17:26:07.495Z,-26.5
2023-01-23T17:28:13.006Z,-26.6
2023-01-23T17:30:11.141Z,-26.5
2023-01-23T17:32:12.981Z,-26.5
2023-01-23T17:34:14.220Z,-26.8
2023-01-23T17:36:15.371Z,-26.7
2023-01-23T17:38:16.757Z,-26.5
2023-01-23T17:40:17.845Z,-26.6
2023-01-23T17:42:19.556Z,-26.1
2023-01-23T17:44:20.783Z,-26.6
2023-01-23T17:46:22.135Z,-26.7
2023-01-23T17:50:25.263Z,-26.6
2023-01-23T17:52:26.743Z,-26.6
2023-01-23T17:56:30.159Z,-26.7
2023-01-23T17:58:31.935Z,-26.5
2023-01-23T18:00:33.582Z,-26.9
2023-01-23T18:02:35.597Z,-26.5
2023-01-23T18:08:40.053Z,-26.7
2023-01-23T18:10:41.765Z,-26.5
2023-01-23T18:12:43.801Z,-26.6
2023-01-23T18:14:45.041Z,-26.3
2023-01-23T18:16:46.190Z,-26.6
2023-01-23T18:18:48.050Z,-26.5
2023-01-23T18:20:49.811Z,-26.7
2023-01-23T18:22:50.927Z,-26.5
2023-01-23T18:24:52.341Z,-26.4
2023-01-23T18:26:53.648Z,-26.5
2023-01-23T18:28:55.243Z,-26.3
2023-01-23T18:32:57.975Z,-26.6
2023-01-23T18:34:59.585Z,-26.3
2023-01-23T18:39:03.176Z,-26.5
2023-01-23T18:41:04.838Z,-26.5
2023-01-23T18:43:06.795Z,-26.5
2023-01-23T18:45:08.060Z,-26.5
2023-01-23T18:49:10.396Z,-26.5
2023-01-23T18:51:12.029Z,-26.6
2023-01-23T18:53:13.095Z,-26.6
2023-01-23T18:55:14.544Z,-26.4
2023-01-23T18:59:17.703Z,-26.4
2023-01-23T19:01:18.818Z,-26.7
2023-01-23T19:03:19.952Z,-26.6
2023-01-23T19:05:21.386Z,-26.3
2023-01-23T19:07:22.375Z,-26.6
2023-01-23T19:09:23.664Z,-26.5
2023-01-23T19:11:25.351Z,-26.5
2023-01-23T19:13:26.542Z,-26.6
2023-01-23T19:17:29.569Z,-26.6
2023-01-23T19:21:33.273Z,-26.2
2023-01-23T19:23:34.954Z,-26.3
2023-01-23T19:25:36.841Z,-26.7
2023-01-23T19:27:38.087Z,-26.7
2023-01-23T19:31:42.629Z,-26.5
2023-01-23T19:33:42.947Z,-26.4
2023-01-23T19:35:44.576Z,-26.3
2023-01-23T19:37:45.873Z,-26.7
2023-01-23T19:39:47.546Z,-26.3
2023-01-23T19:41:49.038Z,-26.6
2023-01-23T19:43:50.417Z,-26.6
2023-01-23T19:45:52.273Z,-26.3
2023-01-23T19:47:53.943Z,-26.7
2023-01-23T19:50:39.291Z,-26.6
2023-01-23T19:52:40.384Z,-26.3
2023-01-23T19:54:41.923Z,-26.8
2023-01-23T19:58:45.586Z,-26.5
2023-01-23T20:00:47.292Z,-26.9
2023-01-23T20:02:49.077Z,-26.3
2023-01-23T20:04:50.492Z,-26.5
2023-01-23T20:10:55.229Z,-26.4
2023-01-23T20:12:56.511Z,-26.3
2023-01-23T20:14:58.022Z,-26.2
2023-01-23T20:17:00.045Z,-26.3
2023-01-23T20:19:00.876Z,-26.5
2023-01-23T20:21:02.833Z,-26.6
2023-01-23T20:25:05.605Z,-26.6
2023-01-23T20:27:07.500Z,-26.4
2023-01-23T20:29:09.466Z,-26.3
2023-01-23T20:31:11.242Z,-26.4
2023-01-23T20:33:13.040Z,-26.5
2023-01-23T20:35:14.329Z,-26.5
2023-01-23T20:37:15.548Z,-26.3
2023-01-23T20:39:17.252Z,-26.6
2023-01-23T20:41:19.016Z,-26.6
2023-01-23T20:43:20.069Z,-26.5
2023-01-23T20:47:23.856Z,-26.5
2023-01-23T20:49:24.928Z,-26.5
2023-01-23T20:51:26.064Z,-26.5
2023-01-23T20:53:27.718Z,-26.3
2023-01-23T20:55:29.578Z,-26.7
2023-01-23T20:57:31.574Z,-26.5
2023-01-23T20:59:33.453Z,-26.7
2023-01-23T21:01:34.911Z,-26.5
2023-01-23T21:03:36.517Z,-26.7
2023-01-23T21:07:39.291Z,-26.4
2023-01-23T21:09:40.868Z,-26.6
2023-01-23T21:11:42.604Z,-26.4
2023-01-23T21:13:44.110Z,-26.4
2023-01-23T21:15:45.932Z,-26.3
2023-01-23T21:17:47.139Z,-26.5
2023-01-23T21:19:48.983Z,-26.5
2023-01-23T21:21:50.422Z,-26.2
2023-01-23T21:23:52.241Z,-26.3
2023-01-23T21:25:53.474Z,-26.5
2023-01-23T21:28:02.903Z,-26.3
2023-01-23T21:29:56.116Z,-26.3
2023-01-23T21:31:57.336Z,-26.3
2023-01-23T21:36:00.739Z,-26.4
2023-01-23T21:38:02.642Z,-26.5
2023-01-23T21:40:04.013Z,-26.5
2023-01-23T21:42:05.111Z,-26.2
2023-01-23T21:44:07.123Z,-26.8
2023-01-23T21:46:08.412Z,-26.8
2023-01-23T21:52:13.460Z,-26.3
2023-01-23T21:54:14.654Z,-26.5
2023-01-23T21:56:16.470Z,-26.7
2023-01-23T21:58:17.891Z,-26.4
2023-01-23T22:00:19.456Z,-26.8
2023-01-23T22:02:20.546Z,-26.3
2023-01-23T22:04:22.089Z,-26.7
2023-01-23T22:06:23.380Z,-26.5
2023-01-23T22:08:24.927Z,-26.3
2023-01-23T22:12:28.029Z,-26.5
2023-01-23T22:14:28.459Z,-26.5
2023-01-23T22:16:46.718Z,-26.6
2023-01-23T22:18:31.630Z,-26.8
2023-01-23T22:20:33.584Z,-26.6
2023-01-23T22:22:34.706Z,-26.6
2023-01-23T22:24:36.509Z,-26.6
2023-01-23T22:26:38.322Z,-26.6
2023-01-23T22:28:40.170Z,-26.5
2023-01-23T22:34:44.302Z,-26.5
2023-01-23T22:36:46.117Z,-26.7
2023-01-23T22:38:47.341Z,-26.4
2023-01-23T22:40:48.902Z,-26.5
2023-01-23T22:42:50.837Z,-26.7
2023-01-23T22:44:52.667Z,-26.7
2023-01-23T22:46:54.617Z,-26.7
2023-01-23T22:48:55.892Z,-26.6
2023-01-23T22:50:57.699Z,-26.4
2023-01-23T22:55:00.551Z,-26.5
2023-01-23T22:57:02.529Z,-26.5
2023-01-23T22:59:04.478Z,-26.5
2023-01-23T23:01:05.804Z,-26.8
2023-01-23T23:05:08.843Z,-26.3
2023-01-23T23:07:10.508Z,-26.4
2023-01-23T23:09:12.388Z,-26.7
2023-01-23T23:11:13.364Z,-26.8
2023-01-23T23:15:16.468Z,-26.4
2023-01-23T23:17:17.767Z,-26.5
2023-01-23T23:19:19.765Z,-27.1
2023-01-23T23:21:21.376Z,-26.3
2023-01-23T23:23:22.815Z,-26.5
2023-01-23T23:25:23.971Z,-26.6
2023-01-23T23:27:25.910Z,-26.4
2023-01-23T23:31:29.664Z,-26.5
2023-01-23T23:33:31.037Z,-26.6
2023-01-23T23:35:32.325Z,-26.2
2023-01-23T23:37:34.296Z,-26.3
2023-01-23T23:41:37.397Z,-26.7
2023-01-23T23:43:38.956Z,-26.6
2023-01-23T23:47:42.101Z,-26.5
2023-01-23T23:49:43.422Z,-26.3
2023-01-23T23:51:45.036Z,-26.6
2023-01-23T23:53:46.802Z,-26.3
2023-01-23T23:59:51.246Z,-26.6
